Map

Track Data

SID SEASON NUMBER BASIN SUBBASIN NAME ISO_TIME NATURE LAT LON WMO_WIND WMO_PRES WMO_AGENCY TRACK_TYPE DIST2LAND LANDFALL IFLAG USA_AGENCY USA_ATCF_ID USA_LAT USA_LON USA_RECORD USA_STATUS USA_WIND USA_PRES USA_SSHS USA_R34_NE USA_R34_SE USA_R34_SW USA_R34_NW USA_R50_NE USA_R50_SE USA_R50_SW USA_R50_NW USA_R64_NE USA_R64_SE USA_R64_SW USA_R64_NW USA_POCI USA_ROCI USA_RMW USA_EYE TOKYO_LAT TOKYO_LON TOKYO_GRADE TOKYO_WIND TOKYO_PRES TOKYO_R50_DIR TOKYO_R50_LONG TOKYO_R50_SHORT TOKYO_R30_DIR TOKYO_R30_LONG TOKYO_R30_SHORT TOKYO_LAND CMA_LAT CMA_LON CMA_CAT CMA_WIND CMA_PRES HKO_LAT HKO_LON HKO_CAT HKO_WIND HKO_PRES NEWDELHI_LAT NEWDELHI_LON NEWDELHI_GRADE NEWDELHI_WIND NEWDELHI_PRES NEWDELHI_CI NEWDELHI_DP NEWDELHI_POCI REUNION_LAT REUNION_LON REUNION_TYPE REUNION_WIND REUNION_PRES REUNION_TNUM REUNION_CI REUNION_RMW REUNION_R34_NE REUNION_R34_SE REUNION_R34_SW REUNION_R34_NW REUNION_R50_NE REUNION_R50_SE REUNION_R50_SW REUNION_R50_NW REUNION_R64_NE REUNION_R64_SE REUNION_R64_SW REUNION_R64_NW BOM_LAT BOM_LON BOM_TYPE BOM_WIND BOM_PRES BOM_TNUM BOM_CI BOM_RMW BOM_R34_NE BOM_R34_SE BOM_R34_SW BOM_R34_NW BOM_R50_NE BOM_R50_SE BOM_R50_SW BOM_R50_NW BOM_R64_NE BOM_R64_SE BOM_R64_SW BOM_R64_NW BOM_ROCI BOM_POCI BOM_EYE BOM_POS_METHOD BOM_PRES_METHOD NADI_LAT NADI_LON NADI_CAT NADI_WIND NADI_PRES WELLINGTON_LAT WELLINGTON_LON WELLINGTON_WIND WELLINGTON_PRES DS824_LAT DS824_LON DS824_STAGE DS824_WIND DS824_PRES TD9636_LAT TD9636_LON TD9636_STAGE TD9636_WIND TD9636_PRES TD9635_LAT TD9635_LON TD9635_WIND TD9635_PRES TD9635_ROCI NEUMANN_LAT NEUMANN_LON NEUMANN_CLASS NEUMANN_WIND NEUMANN_PRES MLC_LAT MLC_LON MLC_CLASS MLC_WIND MLC_PRES USA_GUST BOM_GUST BOM_GUST_PER REUNION_GUST REUNION_GUST_PER USA_SEAHGT USA_SEARAD_NE USA_SEARAD_SE USA_SEARAD_SW USA_SEARAD_NW STORM_SPEED STORM_DIR
1995074S16068 1995 13 SI MM LIDY 1995-03-14 12:00:00 TS -15.5000 67.7000 25 1002 reunion main 1176 1132 _____O______O_ -1 -15.5000 67.7000 2 25 1002 2.00000 2.00000 -15.5000 67.7000 TC 25 1002 8 221
1995074S16068 1995 13 SI MM LIDY 1995-03-14 15:00:00 TS -15.7925 67.4325 main 1132 1088 _____P______P_ -1 -15.7925 67.4325 2 26 1000 -15.7925 67.4325 TC 30 1000 8 224
1995074S16068 1995 13 SI MM LIDY 1995-03-14 18:00:00 TS -16.1000 67.1000 28 998 reunion main 1088 1035 _____O______O_ -1 -16.1000 67.1000 2 28 998 2.50000 2.50000 -16.1000 67.1000 TC 35 998 10 229
1995074S16068 1995 13 SI MM LIDY 1995-03-14 21:00:00 TS -16.4351 66.6650 main 1035 968 _____P______P_ -1 -16.4351 66.6650 2 28 998 -16.4351 66.6650 TC 35 998 11 231
1995074S16068 1995 13 SI MM LIDY 1995-03-15 00:00:00 TS -16.8000 66.2000 28 998 reunion main 968 910 _____O______O_ -1 -16.8000 66.2000 2 28 998 2.50000 2.50000 -16.8000 66.2000 TC 35 998 12 230
1995074S16068 1995 13 SI MM LIDY 1995-03-15 03:00:00 TS -17.1776 65.7476 main 901 854 _____P______P_ -1 -17.1776 65.7476 2 28 998 -17.1776 65.7476 TC 35 998 11 224
1995074S16068 1995 13 SI MM LIDY 1995-03-15 06:00:00 TS -17.6000 65.4000 28 998 reunion main 854 825 _____O______O_ -1 -17.6000 65.4000 2 28 998 2.50000 2.50000 -17.6000 65.4000 TC 35 998 10 206
1995074S16068 1995 13 SI MM LIDY 1995-03-15 09:00:00 TS -18.0998 65.2696 main 825 798 _____P______P_ -1 -18.0998 65.2696 2 29 997 -18.0998 65.2696 TC 35 997 10 191
1995074S16068 1995 13 SI MM LIDY 1995-03-15 12:00:00 TS -18.6000 65.2000 30 996 reunion main 798 767 _____O______O_ -1 -18.6000 65.2000 2 30 996 2.50000 2.50000 -18.6000 65.2000 TC 35 996 10 194
1995074S16068 1995 13 SI MM LIDY 1995-03-15 15:00:00 TS -19.0450 65.0151 main 767 738 _____P______P_ -1 -19.0450 65.0151 2 30 996 -19.0450 65.0151 TC 35 996 9 205
1995074S16068 1995 13 SI MM LIDY 1995-03-15 18:00:00 TS -19.4000 64.8000 30 996 reunion main 738 714 _____O______O_ -1 -19.4000 64.8000 2 30 996 2.00000 2.50000 -19.4000 64.8000 TC 35 996 7 213
1995074S16068 1995 13 SI MM LIDY 1995-03-15 21:00:00 TS -19.6375 64.5999 main 714 691 _____P______P_ -1 -19.6375 64.5999 2 30 996 -19.6375 64.5999 TC 35 996 6 223
1995074S16068 1995 13 SI MM LIDY 1995-03-16 00:00:00 TS -19.8000 64.4000 30 996 reunion main 691 668 _____O______O_ -1 -19.8000 64.4000 2 30 996 2.50000 2.50000 -19.8000 64.4000 TC 35 996 5 230
1995074S16068 1995 13 SI MM LIDY 1995-03-16 03:00:00 TS -19.9650 64.1850 main 668 647 _____P______P_ -1 -19.9650 64.1850 2 30 996 -19.9650 64.1850 TC 35 996 5 231
1995074S16068 1995 13 SI MM LIDY 1995-03-16 06:00:00 TS -20.1000 64.0000 30 996 reunion main 647 636 _____O______O_ -1 -20.1000 64.0000 2 30 996 2.50000 2.50000 -20.1000 64.0000 TC 35 996 4 230
1995074S16068 1995 13 SI MM LIDY 1995-03-16 09:00:00 TS -20.2075 63.8774 main 636 625 _____P______P_ -1 -20.2075 63.8774 2 30 996 -20.2075 63.8774 TC 35 996 3 224
1995074S16068 1995 13 SI MM LIDY 1995-03-16 12:00:00 TS -20.3000 63.8000 30 996 reunion main 625 625 _____O______O_ -1 -20.3000 63.8000 2 30 996 2.00000 2.50000 -20.3000 63.8000 TC 35 996 3 205
1995074S16068 1995 13 SI MM LIDY 1995-03-16 15:00:00 TS -20.4375 63.7650 main 625 615 _____P______P_ -1 -20.4375 63.7650 2 30 997 -20.4375 63.7650 TC 35 997 2 207
1995074S16068 1995 13 SI MM LIDY 1995-03-16 18:00:00 TS -20.5000 63.7000 30 998 reunion main 615 594 _____O______O_ -1 -20.5000 63.7000 2 30 998 2.00000 2.50000 -20.5000 63.7000 TC 35 998 3 285
1995074S16068 1995 13 SI MM LIDY 1995-03-16 21:00:00 TS -20.3651 63.4848 main 594 573 _____P______P_ -1 -20.3651 63.4848 2 30 998 -20.3651 63.4848 TC 35 998 5 309
1995074S16068 1995 13 SI MM LIDY 1995-03-17 00:00:00 TS -20.2000 63.3000 30 998 reunion main 573 573 _____O______O_ -1 -20.2000 63.3000 2 30 998 2.50000 2.50000 -20.2000 63.3000 TC 35 998 3 326
1995074S16068 1995 13 SI MM LIDY 1995-03-17 03:00:00 TS -20.1250 63.3126 main 574 574 _____P______P_ -1 -20.1250 63.3126 2 30 998 -20.1250 63.3126 TC 35 998 1 90
1995074S16068 1995 13 SI MM LIDY 1995-03-17 06:00:00 TS -20.2000 63.4000 30 998 reunion main 584 583 _____O______O_ -1 -20.2000 63.4000 2 30 998 2.50000 2.50000 -20.2000 63.4000 TC 35 998 4 156
1995074S16068 1995 13 SI MM LIDY 1995-03-17 09:00:00 TS -20.5050 63.4947 main 594 594 _____P______P_ -1 -20.5050 63.4947 2 30 998 -20.5050 63.4947 TC 35 998 7 172
1995074S16068 1995 13 SI MM LIDY 1995-03-17 12:00:00 TS -20.9000 63.5000 30 998 reunion main 596 580 _____O______O_ -1 -20.9000 63.5000 2 30 998 2.00000 2.50000 -20.9000 63.5000 TC 35 998 8 195
1995074S16068 1995 13 SI MM LIDY 1995-03-17 15:00:00 TS -21.2526 63.2804 main 582 556 _____P______P_ -1 -21.2526 63.2804 2 30 998 -21.2526 63.2804 TC 35 998 8 218
1995074S16068 1995 13 SI MM LIDY 1995-03-17 18:00:00 TS -21.5000 63.0000 30 998 reunion main 556 536 _____O______O_ -1 -21.5000 63.0000 2 30 998 2.00000 2.50000 -21.5000 63.0000 TC 35 998 6 239
1995074S16068 1995 13 SI MM LIDY 1995-03-17 21:00:00 TS -21.5374 62.7748 main 536 526 _____P______P_ -1 -21.5374 62.7748 2 27 1000 -21.5374 62.7748 TC 30 1000 3 270
1995074S16068 1995 13 SI MM LIDY 1995-03-18 00:00:00 TS -21.5000 62.7000 25 1002 reunion main 526 526 _____O______O_ -1 -21.5000 62.7000 2 25 1002 2.00000 2.00000 -21.5000 62.7000 TC 25 1002 1 74
1995074S16068 1995 13 SI MM LIDY 1995-03-18 03:00:00 TS -21.5051 62.8976 main 546 546 _____P______P_ -1 -21.5051 62.8976 2 25 1002 -21.5051 62.8976 TC 25 1002 5 102
1995074S16068 1995 13 SI MM LIDY 1995-03-18 06:00:00 TS -21.6000 63.2000 25 1002 reunion main 579 579 _____O______O_ -1 -21.6000 63.2000 2 25 1002 2.00000 2.00000 -21.6000 63.2000 TC 25 1002 7 130
1995074S16068 1995 13 SI MM LIDY 1995-03-18 09:00:00 TS -21.9525 63.4747 main 620 620 _____P______P_ -1 -21.9525 63.4747 2 25 1002 -21.9525 63.4747 TC 25 1002 7 148
1995074S16068 1995 13 SI MM LIDY 1995-03-18 12:00:00 TS -22.2000 63.6000 25 1002 reunion main 637 610 _____O______O_ -1 -22.2000 63.6000 2 25 1002 2.00000 2.00000 -22.2000 63.6000 TC 25 1002 1 232
1995074S16068 1995 13 SI MM LIDY 1995-03-18 15:00:00 TS -22.0127 63.3947 main 610 569 _____P______P_ -1 -22.0127 63.3947 2 25 1002 -22.0127 63.3947 TC 25 1002 8 322
1995074S16068 1995 13 SI MM LIDY 1995-03-18 18:00:00 TS -21.6000 63.1000 25 1002 reunion main 569 549 _____O______O_ -1 -21.6000 63.1000 2 25 1002 1.50000 2.00000 -21.6000 63.1000 TC 25 1002 9 336
1995074S16068 1995 13 SI MM LIDY 1995-03-18 21:00:00 TS -21.1574 62.9776 main 549 532 _____P______P_ -1 -21.1574 62.9776 2 25 1003 -21.1574 62.9776 TC 22 1003 9 348
1995074S16068 1995 13 SI MM LIDY 1995-03-19 00:00:00 TS -20.7000 62.9000 25 1004 reunion main 532 521 _____O______O_ -1 -20.7000 62.9000 2 25 1004 1.50000 2.00000 -20.7000 62.9000 TC 20 1004 9 351
1995074S16068 1995 13 SI MM LIDY 1995-03-19 03:00:00 TS -20.2974 62.8226 main 521 511 _____P______P_ -1 -20.2974 62.8226 2 22 1006 -20.2974 62.8226 TC 15 1006 7 345
1995074S16068 1995 13 SI MM LIDY 1995-03-19 06:00:00 TS -20.0000 62.7000 20 1008 reunion main 512 492 _____O______O_ -1 -20.0000 62.7000 2 20 1008 1.50000 1.50000 -20.0000 62.7000 TC 10 1008 5 327
1995074S16068 1995 13 SI MM LIDY 1995-03-19 09:00:00 TS -19.8771 62.5328 main 492 462 _____P______P_ -1 -19.8771 62.5328 2 -19.8771 62.5328 TC 17 5 293
1995074S16068 1995 13 SI MM LIDY 1995-03-19 12:00:00 TS -19.8000 62.2000 reunion main 462 404 _____O______O_ -1 -19.8000 62.2000 6 9.90000 -19.8000 62.2000 TC 25 9 287
1995074S16068 1995 13 SI MM LIDY 1995-03-19 15:00:00 TS -19.6078 61.6022 main 404 339 _____P______P_ -1 -19.6078 61.6022 6 -19.6078 61.6022 TC 25 13 288
1995074S16068 1995 13 SI MM LIDY 1995-03-19 18:00:00 TS -19.4000 60.9000 reunion main 339 289 _____O______O_ -1 -19.4000 60.9000 6 9.90000 -19.4000 60.9000 TC 25 13 287
1995074S16068 1995 13 SI MM LIDY 1995-03-19 21:00:00 TS -19.2272 60.3001 main 289 237 _____P______P_ -1 -19.2272 60.3001 6 -19.2272 60.3001 TC 25 12 285
1995074S16068 1995 13 SI MM LIDY 1995-03-20 00:00:00 TS -19.1000 59.7000 reunion main 237 191 _____O______O_ -1 -19.1000 59.7000 6 9.90000 -19.1000 59.7000 TC 25 12 280
1995074S16068 1995 13 SI MM LIDY 1995-03-20 03:00:00 TS -19.0274 59.0501 main 191 143 _____P______P_ -1 -19.0274 59.0501 6 -19.0274 59.0501 TC 25 12 275
1995074S16068 1995 13 SI MM LIDY 1995-03-20 06:00:00 TS -19.0000 58.4000 reunion main 143 123 _____O______O_ -1 -19.0000 58.4000 6 9.90000 -19.0000 58.4000 TC 25 12 272
1995074S16068 1995 13 SI MM LIDY 1995-03-20 09:00:00 TS -18.9924 57.7776 main 123 123 _____P______P_ -1 -18.9924 57.7776 6 -18.9924 57.7776 TC 22 11 270
1995074S16068 1995 13 SI MM LIDY 1995-03-20 12:00:00 TS -19.0000 57.2000 reunion main 126 126 _____O______O_ -1 -19.0000 57.2000 6 9.90000 -19.0000 57.2000 TC 20 10 269
1995074S16068 1995 13 SI MM LIDY 1995-03-20 15:00:00 TS -19.0027 56.6825 main 148 148 _____P______P_ -1 -19.0027 56.6825 6 -19.0027 56.6825 TC 20 9 270
1995074S16068 1995 13 SI MM LIDY 1995-03-20 18:00:00 TS -19.0000 56.2000 reunion main 183 _____O______O_ -1 -19.0000 56.2000 6 9.90000 -19.0000 56.2000 TC 20 9 270

About IBTrACS Database

This database is a web-friendly format of International Best Track Archive for Climate Stewardship (IBTrACS), a global best track data archive curated by NOAA dating back to 1842.

Updated: 2021-12-08